Shepherd's Bush, United Kingdom
Current Conditions -  °F | °C
As of 6:50 AM on Sunday 26 Oct 2014 (Local Time) from EGWU Reporting Station
Broken Clouds Broken Clouds  
Wind Chill: 54°   Ceiling: 3100
Heat Index: 54°   Visibility: 6mi
Dew Point: 46°   Wind: 8mph
Humidity: 77%   Direction: 230°SW
Pressure: 30.12"   Gusts: NA
Location:  51.51°N, 0.24°W
Report Text: EGWU 260550Z AUTO 23007KT 9999 // BKN031/// SCT240/// 12/08 Q1020
Loading
Personal Weather Stations






























Interactive Weather Map New forecast layout! Learn more

10-Day Weather Forecast

Advertisements
Track Severe Weather on mobile